TAF LEMD
AMD LEMD 090745Z 0907/1006 24013KT 9999 SCT030 SCT045 TX11/0915Z TN03/0907Z PROB30 TEMPO 0907/0909 4500 BR PROB30 TEMPO 0909/0914 24013G23KT PROB40 TEMPO 1000/1006 4000 BR=
METAR LEMD
LEMD 091000Z 23014KT 9999 FEW040 BKN060 10/04 Q1020 NOSIG=
LEMD 090930Z 24015KT 9999 BKN065 08/02 Q1020 NOSIG=
LEMD 090900Z 23013KT 9999 BKN065 08/02 Q1020 NOSIG=
LEMD 090830Z 22012KT 9999 BKN065 07/02 Q1020 NOSIG=
LEMD 090800Z 23013KT 9999 BKN065 07/01 Q1020 NOSIG=
WC LEMD
WS LEMD
WV LEMD